Time;durP1;ratioP1;P1;durP2;ratioP2;P2;SDS_P1;SDS_P2;PMS_P1;PMS_P2;Temp;Humidity;BMP_temperature;BMP_pressure;BME280_temperature;BME280_humidity;BME280_pressure;Samples;Min_cycle;Max_cycle;Signal;HPM_P1;HPM_P2
2021/10/27 00:01:42;;;;;;;8.93;4.18;;;;;;;8.76;93.28;97847.19;4967477;28;20069;-63
2021/10/27 00:04:09;;;;;;;5.95;3.88;;;;;;;8.68;92.91;97821.25;4966781;28;20536;-64
2021/10/27 00:06:36;;;;;;;6.57;3.30;;;;;;;8.84;91.59;97846.28;4967884;28;20122;-66
2021/10/27 00:09:04;;;;;;;7.88;3.67;;;;;;;8.09;92.45;97738.94;4968061;28;20493;-63
2021/10/27 00:11:31;;;;;;;6.97;3.38;;;;;;;8.77;92.73;97841.31;4967225;28;20063;-63
2021/10/27 00:13:58;;;;;;;5.75;3.67;;;;;;;8.82;92.62;97840.31;4967495;28;20062;-63
2021/10/27 00:16:27;;;;;;;7.63;4.43;;;;;;;8.66;91.88;97822.75;4966268;28;20058;-63
2021/10/27 00:18:54;;;;;;;8.07;4.13;;;;;;;8.76;92.23;97842.47;4966245;28;20059;-63
2021/10/27 00:21:21;;;;;;;6.85;3.92;;;;;;;8.56;91.93;97815.69;4967519;28;20055;-64
2021/10/27 00:23:48;;;;;;;10.50;4.90;;;;;;;8.72;91.16;97821.41;4968337;28;20061;-63
2021/10/27 00:26:15;;;;;;;8.25;4.78;;;;;;;6.06;91.92;97418.56;4967191;28;20054;-63
2021/10/27 00:28:42;;;;;;;9.18;4.38;;;;;;;8.46;93.00;97818.03;4967924;28;20055;-63
2021/10/27 00:31:09;;;;;;;6.63;4.18;;;;;;;8.38;94.38;97816.16;4967133;28;20086;-63
2021/10/27 00:33:37;;;;;;;6.03;4.15;;;;;;;8.19;94.94;97807.53;4966109;28;20108;-63
2021/10/27 00:36:05;;;;;;;6.07;4.07;;;;;;;7.88;95.33;97773.97;4966919;28;20387;-63
2021/10/27 00:38:32;;;;;;;9.48;5.28;;;;;;;7.79;96.19;97764.97;4965928;28;20051;-65
2021/10/27 00:40:59;;;;;;;8.15;4.80;;;;;;;8.04;97.06;97810.88;4967072;28;20113;-65
2021/10/27 00:43:26;;;;;;;11.15;5.78;;;;;;;8.12;96.62;97810.00;4967404;28;20589;-63
2021/10/27 00:45:52;;;;;;;9.88;4.75;;;;;;;8.19;95.27;97810.28;4966714;28;20055;-63
2021/10/27 00:48:19;;;;;;;8.55;4.35;;;;;;;6.96;96.67;97653.75;4967437;28;20054;-62
2021/10/27 00:50:46;;;;;;;10.00;4.38;;;;;;;7.32;98.31;97737.50;4966377;28;20441;-62
2021/10/27 00:53:13;;;;;;;12.23;5.65;;;;;;;7.06;98.20;97695.53;4967216;28;20058;-62
2021/10/27 00:55:40;;;;;;;11.98;5.75;;;;;;;7.69;98.13;97800.06;4965211;28;20092;-63
2021/10/27 00:58:07;;;;;;;6.35;4.00;;;;;;;7.77;97.68;97794.81;4967291;28;20061;-63
2021/10/27 01:00:35;;;;;;;12.02;5.72;;;;;;;7.71;96.93;97797.75;4965448;28;20359;-63
2021/10/27 01:03:02;;;;;;;9.95;5.35;;;;;;;7.59;97.77;97800.44;4966913;28;20504;-62
2021/10/27 01:05:30;;;;;;;11.60;6.13;;;;;;;7.26;98.31;97785.69;4966505;28;20055;-63
2021/10/27 01:07:57;;;;;;;12.23;5.97;;;;;;;7.45;98.54;97788.84;4965246;28;20055;-63
2021/10/27 01:10:24;;;;;;;11.63;5.35;;;;;;;7.34;99.35;97804.13;4966460;28;20077;-63
2021/10/27 01:12:51;;;;;;;9.70;5.10;;;;;;;7.43;98.31;97796.63;4964966;28;20068;-64
2021/10/27 01:15:18;;;;;;;10.07;4.88;;;;;;;7.35;98.54;97793.94;4965692;28;20125;-63
2021/10/27 01:17:45;;;;;;;10.55;4.68;;;;;;;7.26;98.66;97791.19;4966541;28;20478;-63
2021/10/27 01:20:13;;;;;;;12.48;4.70;;;;;;;7.21;99.44;97788.63;4966162;28;20061;-65
2021/10/27 01:22:40;;;;;;;11.20;5.30;;;;;;;7.20;98.64;97787.03;4966532;28;20134;-64
2021/10/27 01:25:10;;;;;;;9.40;4.45;;;;;;;7.18;99.58;97794.78;4966584;28;20061;-64
2021/10/27 01:27:40;;;;;;;8.15;4.88;;;;;;;6.57;99.79;97718.22;4966676;28;20559;-63
2021/10/27 01:30:11;;;;;;;9.18;4.43;;;;;;;6.44;100.00;97734.91;4966541;28;20061;-63
2021/10/27 01:32:38;;;;;;;8.13;4.45;;;;;;;6.90;99.92;97788.09;4966433;28;20226;-63
2021/10/27 01:35:06;;;;;;;9.25;4.45;;;;;;;6.92;100.00;97796.03;4964654;28;20049;-63
2021/10/27 01:37:35;;;;;;;13.52;4.45;;;;;;;6.85;100.00;97791.00;4966343;28;20061;-64
2021/10/27 01:40:03;;;;;;;13.75;4.57;;;;;;;6.26;99.87;97717.63;4964804;28;20061;-63
2021/10/27 01:42:30;;;;;;;7.93;5.13;;;;;;;6.74;100.00;97800.75;4966358;28;20065;-63
2021/10/27 01:44:56;;;;;;;8.15;4.63;;;;;;;6.67;100.00;97799.66;4966647;28;20059;-63
2021/10/27 01:47:23;;;;;;;10.75;4.55;;;;;;;6.72;100.00;97803.03;4964709;28;20057;-63
2021/10/27 01:49:50;;;;;;;8.15;4.53;;;;;;;6.47;99.84;97757.09;4966477;28;20643;-63
2021/10/27 01:52:17;;;;;;;9.68;4.78;;;;;;;6.57;100.00;97800.78;4965855;28;20434;-63
2021/10/27 01:54:44;;;;;;;8.77;3.60;;;;;;;6.54;100.00;97797.88;4966165;28;20046;-63
2021/10/27 01:57:11;;;;;;;12.30;4.75;;;;;;;6.42;100.00;97801.28;4964270;28;20142;-63
2021/10/27 01:59:38;;;;;;;7.18;4.13;;;;;;;6.06;99.91;97763.13;4964218;28;20603;-64
2021/10/27 02:02:05;;;;;;;7.63;4.30;;;;;;;6.05;100.00;97766.19;4965596;28;20061;-63
2021/10/27 02:04:32;;;;;;;9.93;5.20;;;;;;;5.98;100.00;97743.84;4966293;28;20105;-64
2021/10/27 02:07:00;;;;;;;12.48;4.70;;;;;;;6.35;100.00;97797.41;4964759;28;20062;-62
2021/10/27 02:09:28;;;;;;;8.50;4.15;;;;;;;6.35;100.00;97800.97;4965756;28;20652;-63
2021/10/27 02:11:55;;;;;;;10.82;5.13;;;;;;;6.34;99.87;97802.09;4965104;28;20055;-62
2021/10/27 02:14:22;;;;;;;9.10;4.45;;;;;;;6.30;99.60;97806.63;4965276;28;20247;-62
2021/10/27 02:16:50;;;;;;;8.45;4.00;;;;;;;6.27;99.67;97804.53;4963626;28;20051;-63
2021/10/27 02:19:17;;;;;;;6.47;4.30;;;;;;;5.51;98.87;97684.31;4965705;28;20355;-63
2021/10/27 02:21:43;;;;;;;13.75;7.35;;;;;;;6.03;98.64;97790.44;4964258;28;20050;-64
2021/10/27 02:24:10;;;;;;;9.95;5.38;;;;;;;6.05;100.00;97821.19;4965145;28;20058;-63
2021/10/27 02:26:37;;;;;;;9.98;4.55;;;;;;;6.13;100.00;97812.16;4963719;28;20055;-63
2021/10/27 02:29:04;;;;;;;4.82;3.22;;;;;;;6.16;99.19;97806.00;4966026;28;20063;-63
2021/10/27 02:31:31;;;;;;;6.55;3.15;;;;;;;6.02;100.00;97805.34;4964876;28;20066;-63
2021/10/27 02:33:58;;;;;;;5.53;3.53;;;;;;;5.87;100.00;97808.53;4965496;28;20069;-63
2021/10/27 02:36:24;;;;;;;8.27;4.10;;;;;;;4.94;100.00;97664.34;4963424;28;20066;-64
2021/10/27 02:38:51;;;;;;;10.75;5.53;;;;;;;5.70;100.00;97786.50;4963808;28;20864;-63
2021/10/27 02:41:18;;;;;;;10.05;4.65;;;;;;;5.88;100.00;97805.47;4965219;28;20053;-63
2021/10/27 02:43:45;;;;;;;6.15;3.60;;;;;;;5.68;100.00;97766.75;4963616;28;20053;-63
2021/10/27 02:46:12;;;;;;;7.15;3.28;;;;;;;5.74;100.00;97812.19;4964422;28;20058;-63
2021/10/27 02:48:39;;;;;;;6.60;3.30;;;;;;;5.88;99.85;97801.94;4965339;28;20054;-62
2021/10/27 02:51:06;;;;;;;8.10;3.67;;;;;;;5.34;99.86;97733.75;4963424;28;20133;-63
2021/10/27 02:53:33;;;;;;;5.45;3.58;;;;;;;5.44;99.10;97744.41;4965313;28;20047;-63
2021/10/27 02:56:00;;;;;;;6.03;3.63;;;;;;;5.79;98.15;97801.88;4963435;28;20054;-63
2021/10/27 02:58:26;;;;;;;3.58;2.50;;;;;;;5.70;98.49;97811.25;4965045;28;20242;-63
2021/10/27 03:00:53;;;;;;;6.47;3.60;;;;;;;5.37;98.52;97788.03;4964890;28;20058;-63
2021/10/27 03:03:20;;;;;;;9.93;3.53;;;;;;;5.52;98.78;97813.13;4965072;28;20082;-62
2021/10/27 03:05:47;;;;;;;9.68;5.53;;;;;;;5.49;99.25;97823.94;4963906;28;20149;-65
2021/10/27 03:08:14;;;;;;;17.67;9.90;;;;;;;5.41;99.61;97831.03;4963237;28;20055;-63
2021/10/27 03:10:40;;;;;;;20.98;10.20;;;;;;;5.42;98.70;97826.34;4964613;28;20061;-63
2021/10/27 03:13:07;;;;;;;14.20;6.90;;;;;;;5.38;99.72;97815.19;4962904;28;20055;-63
2021/10/27 03:15:34;;;;;;;9.52;5.38;;;;;;;5.36;99.72;97819.41;4964773;28;20050;-63
2021/10/27 03:18:01;;;;;;;13.57;4.32;;;;;;;4.93;99.61;97766.22;4964979;28;20093;-63
2021/10/27 03:20:27;;;;;;;10.48;4.70;;;;;;;4.72;99.91;97733.03;4968261;28;20137;-63
2021/10/27 03:22:54;;;;;;;9.45;5.40;;;;;;;5.19;99.57;97820.13;4968268;28;20054;-62
2021/10/27 03:25:21;;;;;;;13.27;6.82;;;;;;;5.18;100.00;97828.69;4967572;28;20598;-63
2021/10/27 03:27:47;;;;;;;18.52;8.88;;;;;;;5.30;99.27;97826.13;4968487;28;20454;-61
2021/10/27 03:30:14;;;;;;;16.23;8.20;;;;;;;5.23;99.41;97825.78;4966751;28;20533;-63
2021/10/27 03:32:41;;;;;;;18.75;7.78;;;;;;;4.93;100.00;97834.84;4968132;28;20070;-62
2021/10/27 03:35:08;;;;;;;20.38;8.85;;;;;;;4.64;100.00;97780.44;4968054;28;20080;-63
2021/10/27 03:37:35;;;;;;;16.92;8.05;;;;;;;4.47;100.00;97739.19;4966622;28;20453;-62
2021/10/27 03:40:06;;;;;;;18.63;7.30;;;;;;;5.07;100.00;97838.31;4968009;28;20061;-62
2021/10/27 03:42:33;;;;;;;18.38;8.60;;;;;;;4.89;100.00;97825.59;4968529;28;20124;-62
2021/10/27 03:45:00;;;;;;;15.57;7.30;;;;;;;4.68;99.71;97784.97;4968378;28;20054;-64
2021/10/27 03:47:26;;;;;;;18.95;7.38;;;;;;;5.02;99.77;97838.44;4968284;28;20055;-63
2021/10/27 03:49:54;;;;;;;18.15;8.27;;;;;;;5.07;99.59;97838.31;4966693;28;20054;-62
2021/10/27 03:52:22;;;;;;;23.85;8.95;;;;;;;5.17;99.18;97840.81;4967864;28;20232;-63
2021/10/27 03:54:49;;;;;;;18.30;7.45;;;;;;;5.01;99.73;97817.63;4968209;28;20073;-63
2021/10/27 03:57:16;;;;;;;13.52;6.97;;;;;;;4.44;99.78;97737.88;4968041;28;20077;-63
2021/10/27 03:59:42;;;;;;;11.35;5.45;;;;;;;5.14;99.62;97844.97;4968028;28;20141;-63
2021/10/27 04:02:09;;;;;;;16.35;5.22;;;;;;;4.65;98.15;97749.94;4968151;28;20060;-62
2021/10/27 04:04:36;;;;;;;6.75;4.10;;;;;;;5.22;97.70;97846.13;4968253;28;20133;-62
2021/10/27 04:07:03;;;;;;;14.55;6.30;;;;;;;5.08;97.85;97839.94;4967565;28;20414;-63
2021/10/27 04:09:30;;;;;;;11.18;6.05;;;;;;;4.72;98.58;97800.81;4967890;28;20434;-63
2021/10/27 04:11:57;;;;;;;17.25;7.80;;;;;;;4.35;98.59;97755.41;4967619;28;20055;-61
2021/10/27 04:14:24;;;;;;;18.48;7.88;;;;;;;3.88;98.64;97658.19;4967164;28;20066;-62
2021/10/27 04:16:50;;;;;;;31.20;13.15;;;;;;;4.35;98.80;97786.38;4967305;28;20051;-63
2021/10/27 04:19:17;;;;;;;24.73;11.45;;;;;;;4.91;99.12;97843.41;4967421;28;20051;-62
2021/10/27 04:21:44;;;;;;;27.70;10.75;;;;;;;4.77;99.09;97839.09;4967428;28;20073;-63
2021/10/27 04:24:11;;;;;;;11.35;6.60;;;;;;;4.93;99.62;97843.91;4967386;28;20058;-63
2021/10/27 04:26:37;;;;;;;15.48;5.78;;;;;;;5.03;98.28;97851.03;4966279;28;20054;-62
2021/10/27 04:29:04;;;;;;;23.50;10.80;;;;;;;4.95;98.69;97849.09;4965354;28;20066;-64
2021/10/27 04:31:31;;;;;;;39.40;15.77;;;;;;;4.80;98.87;97843.97;4966873;28;20054;-63
2021/10/27 04:33:58;;;;;;;40.67;16.75;;;;;;;4.79;99.26;97848.63;4967323;28;20083;-62
2021/10/27 04:36:25;;;;;;;82.13;28.13;;;;;;;4.93;97.98;97848.56;4966839;28;20513;-62
2021/10/27 04:38:52;;;;;;;56.97;21.67;;;;;;;4.78;98.39;97848.94;4966795;28;20494;-63
2021/10/27 04:41:19;;;;;;;67.93;21.77;;;;;;;4.02;99.22;97730.19;4967291;28;20445;-62
2021/10/27 04:43:45;;;;;;;56.10;21.50;;;;;;;4.37;99.24;97799.78;4967014;28;20050;-62
2021/10/27 04:46:12;;;;;;;47.00;18.90;;;;;;;2.84;99.18;97550.94;4967170;28;20065;-63
2021/10/27 04:48:39;;;;;;;56.08;23.02;;;;;;;4.78;98.19;97862.69;4967116;28;20076;-62
2021/10/27 04:51:06;;;;;;;46.83;20.90;;;;;;;4.88;97.21;97851.44;4965700;28;20054;-63
2021/10/27 04:53:34;;;;;;;50.30;23.02;;;;;;;4.76;98.00;97848.47;4965709;28;20100;-62
2021/10/27 04:56:01;;;;;;;48.05;21.90;;;;;;;4.72;97.55;97853.78;4965311;28;20480;-62
2021/10/27 04:58:30;;;;;;;61.97;24.67;;;;;;;4.22;98.09;97800.97;4967463;28;20050;-62
2021/10/27 05:00:56;;;;;;;92.32;34.10;;;;;;;4.19;98.09;97779.66;4965050;28;20050;-62
2021/10/27 05:03:23;;;;;;;93.93;31.23;;;;;;;4.69;97.57;97871.66;4966883;28;20528;-62
2021/10/27 05:05:54;;;;;;;135.32;47.05;;;;;;;4.55;98.17;97848.19;4965202;28;20050;-62
2021/10/27 05:08:24;;;;;;;69.93;28.60;;;;;;;4.23;98.37;97797.13;4967371;28;20153;-62
2021/10/27 05:10:51;;;;;;;39.35;18.50;;;;;;;4.10;98.80;97787.00;4964945;28;20057;-62
2021/10/27 05:13:19;;;;;;;35.95;17.55;;;;;;;4.63;100.00;97878.41;4966372;28;20061;-62
2021/10/27 05:15:49;;;;;;;32.45;14.75;;;;;;;4.58;99.66;97873.03;4966024;28;20134;-62
2021/10/27 05:18:17;;;;;;;41.03;17.13;;;;;;;4.63;99.95;97877.59;4966793;28;20101;-62
2021/10/27 05:20:45;;;;;;;47.50;22.52;;;;;;;4.57;100.00;97879.66;4964603;28;20063;-63
2021/10/27 05:23:13;;;;;;;58.05;26.00;;;;;;;4.36;99.10;97856.56;4966717;28;20054;-62
2021/10/27 05:25:40;;;;;;;50.40;23.98;;;;;;;4.64;99.05;97891.00;4965336;28;20061;-63
2021/10/27 05:28:06;;;;;;;44.00;21.30;;;;;;;3.89;97.66;97763.94;4966427;28;20058;-63
2021/10/27 05:30:33;;;;;;;49.20;22.67;;;;;;;4.21;98.14;97812.25;4966119;28;20505;-65
2021/10/27 05:33:00;;;;;;;59.25;27.85;;;;;;;4.81;98.93;97895.81;4965900;28;20065;-62
2021/10/27 05:35:29;;;;;;;42.92;22.25;;;;;;;4.41;99.19;97826.28;4964453;28;20054;-64
2021/10/27 05:37:57;;;;;;;49.13;22.85;;;;;;;4.41;99.30;97820.00;4966250;28;20588;-62
2021/10/27 05:40:24;;;;;;;53.35;23.42;;;;;;;4.40;98.73;97808.22;4965420;28;20196;-63
2021/10/27 05:42:51;;;;;;;39.38;18.70;;;;;;;5.11;97.57;97905.19;4965807;28;20062;-61
2021/10/27 05:45:21;;;;;;;28.98;15.52;;;;;;;5.26;98.33;97907.56;4965016;28;20055;-62
2021/10/27 05:47:52;;;;;;;19.23;9.25;;;;;;;5.36;96.57;97912.78;4966303;28;20054;-64
2021/10/27 05:55:35;;;;;;;24.60;11.52;;;;;;;5.59;94.77;97900.59;4959856;28;20059;-57
2021/10/27 05:58:03;;;;;;;23.63;13.50;;;;;;;5.06;93.54;97807.28;4959879;28;20573;-62
2021/10/27 06:00:32;;;;;;;22.70;12.48;;;;;;;5.70;94.72;97918.44;4925112;28;20051;-61
2021/10/27 06:03:01;;;;;;;20.40;12.65;;;;;;;5.77;95.13;97924.28;4921683;28;20197;-63
2021/10/27 06:05:29;;;;;;;15.70;10.68;;;;;;;5.06;94.84;97776.31;4918407;28;20058;-61
2021/10/27 06:07:57;;;;;;;12.20;7.63;;;;;;;6.29;93.34;97926.09;4919500;28;20050;-63
2021/10/27 06:10:25;;;;;;;17.00;9.07;;;;;;;6.37;92.57;97925.25;4917697;28;20077;-61
2021/10/27 06:12:57;;;;;;;16.55;9.02;;;;;;;5.81;91.61;97787.81;4915803;28;20173;-61
2021/10/27 06:15:24;;;;;;;18.40;7.93;;;;;;;6.50;90.53;97861.00;4915031;28;20057;-64
2021/10/27 06:17:51;;;;;;;15.00;6.70;;;;;;;7.06;88.50;97915.91;4909390;28;20054;-64
2021/10/27 06:20:18;;;;;;;11.43;6.20;;;;;;;6.48;86.66;97843.22;4896539;28;20063;-62
2021/10/27 06:22:45;;;;;;;10.95;6.35;;;;;;;5.24;85.96;97558.25;4909339;28;20062;-60
2021/10/27 06:25:12;;;;;;;17.42;9.00;;;;;;;7.37;85.07;97885.34;4919111;28;20054;-63
2021/10/27 06:27:43;;;;;;;15.88;8.90;;;;;;;7.77;85.08;97907.88;4916690;28;20061;-57
2021/10/27 06:30:14;;;;;;;18.23;10.10;;;;;;;8.08;83.84;97927.72;4918041;28;20055;-65
2021/10/27 06:35:38;;;;;;;17.15;9.82;;;;;;;8.23;80.88;97875.56;4911990;28;20070;-61
2021/10/27 06:46:38;;;;;;;10.18;6.47;;;;;;;9.20;77.40;97932.09;4916243;28;20520;-63
2021/10/27 06:49:06;;;;;;;8.15;5.68;;;;;;;7.43;77.55;97636.78;4919001;28;20517;-67
2021/10/27 06:51:34;;;;;;;10.13;6.50;;;;;;;9.34;77.45;97935.41;4916652;28;20051;-61
2021/10/27 06:54:02;;;;;;;15.32;7.95;;;;;;;9.17;75.20;97905.13;4918859;28;20146;-61
2021/10/27 06:56:29;;;;;;;15.50;7.40;;;;;;;8.72;76.58;97837.97;4916779;28;20059;-64
2021/10/27 07:01:34;;;;;;;21.65;11.60;;;;;;;8.86;76.23;97842.06;4919373;28;20567;-63
2021/10/27 07:17:15;;;;;;;26.77;17.23;;;;;;;9.87;76.16;97932.50;4916016;28;20596;-62
2021/10/27 07:19:42;;;;;;;29.50;15.20;;;;;;;10.22;75.25;97944.00;4917616;28;20516;-61
2021/10/27 07:22:13;;;;;;;28.10;15.38;;;;;;;10.12;74.22;97903.72;4916655;28;20046;-64
2021/10/27 07:24:44;;;;;;;26.48;12.27;;;;;;;10.47;73.33;97915.94;4914956;28;20069;-61
2021/10/27 07:27:13;;;;;;;22.48;12.40;;;;;;;10.42;71.82;97876.56;4918541;28;20058;-63
2021/10/27 07:29:43;;;;;;;32.50;14.73;;;;;;;10.39;72.18;97886.41;4915012;28;20057;-61
2021/10/27 07:32:13;;;;;;;29.33;18.15;;;;;;;10.87;72.12;97891.03;4920062;28;20062;-60
2021/10/27 07:34:42;;;;;;;28.20;16.52;;;;;;;11.16;72.20;97910.06;4921202;28;20062;-64
2021/10/27 07:40:07;;;;;;;10.02;7.57;;;;;;;11.83;69.05;97923.88;4920981;28;20566;-61
2021/10/27 07:42:36;;;;;;;10.00;6.10;;;;;;;11.90;69.40;97917.69;4918790;28;20055;-62
2021/10/27 07:45:03;;;;;;;12.48;7.07;;;;;;;11.01;70.42;97818.53;4918037;28;20054;-62
2021/10/27 07:47:30;;;;;;;12.10;6.97;;;;;;;9.59;68.71;97574.75;4916308;28;20086;-62
2021/10/27 07:49:58;;;;;;;14.10;7.25;;;;;;;12.51;68.34;97909.66;4917358;28;20047;-59
2021/10/27 07:52:25;;;;;;;17.85;9.38;;;;;;;12.80;66.37;97912.75;4915715;28;20841;-61
2021/10/27 07:54:52;;;;;;;10.55;6.30;;;;;;;11.00;64.44;97617.34;4915086;28;20303;-65
2021/10/27 07:57:19;;;;;;;8.77;6.28;;;;;;;12.33;63.08;97763.97;4916090;28;20058;-62
2021/10/27 07:59:46;;;;;;;6.93;5.40;;;;;;;13.38;62.41;97906.06;4914880;28;20061;-62
2021/10/27 08:02:16;;;;;;;7.80;5.13;;;;;;;12.57;61.75;97749.78;4915276;28;20543;-64
2021/10/27 08:04:42;;;;;;;8.82;5.03;;;;;;;13.07;60.54;97833.88;4916651;28;20957;-63
2021/10/27 08:07:09;;;;;;;14.63;8.18;;;;;;;13.93;59.06;97898.31;4920009;28;20505;-63
2021/10/27 08:09:36;;;;;;;6.75;4.30;;;;;;;13.76;58.04;97876.53;4922882;28;20056;-66
2021/10/27 08:12:03;;;;;;;5.60;4.32;;;;;;;13.92;55.94;97896.69;4924196;28;20059;-63
2021/10/27 08:14:30;;;;;;;5.60;3.67;;;;;;;13.68;55.59;97837.44;4918140;28;20356;-61
2021/10/27 08:17:17;;;;;;;8.23;4.38;;;;;;;14.09;56.70;97896.19;4909860;28;20073;-62
2021/10/27 08:19:44;;;;;;;11.73;6.18;;;;;;;13.63;56.15;97803.50;4920249;28;20968;-64
2021/10/27 08:22:11;;;;;;;11.35;5.68;;;;;;;14.33;56.45;97884.69;4903007;28;20385;-63
2021/10/27 08:24:38;;;;;;;8.48;6.00;;;;;;;14.41;56.18;97892.00;4902148;28;20502;-65
2021/10/27 08:27:26;;;;;;;8.88;5.03;;;;;;;14.67;55.09;97886.41;4902900;28;20071;-63
2021/10/27 08:29:53;;;;;;;5.28;3.30;;;;;;;14.50;55.21;97890.53;4916897;28;20054;-66
2021/10/27 08:32:40;;;;;;;5.97;2.85;;;;;;;13.87;55.81;97805.09;4925105;28;20059;-65
2021/10/27 08:35:13;;;;;;;3.97;2.63;;;;;;;14.58;55.10;97891.44;4924496;28;20047;-65
2021/10/27 08:37:46;;;;;;;3.20;2.40;;;;;;;14.29;54.62;97855.97;4920886;28;20557;-60
2021/10/27 08:40:19;;;;;;;3.45;2.17;;;;;;;14.02;53.95;97807.72;4918877;28;20434;-61
2021/10/27 08:42:47;;;;;;;4.70;2.92;;;;;;;12.57;54.51;97519.09;4916653;28;20473;-66
2021/10/27 08:45:15;;;;;;;6.32;3.42;;;;;;;12.49;54.06;97523.75;4917292;28;20050;-59
2021/10/27 08:47:46;;;;;;;19.73;7.18;;;;;;;15.04;54.26;97881.75;4920505;28;20047;-63
2021/10/27 08:50:15;;;;;;;9.25;5.97;;;;;;;15.14;54.33;97881.09;4918524;28;20059;-60
2021/10/27 08:52:43;;;;;;;6.63;3.90;;;;;;;14.81;53.78;97836.41;4917219;28;20053;-69
2021/10/27 08:55:12;;;;;;;4.80;3.65;;;;;;;14.56;53.42;97854.75;4918828;28;20062;-61
2021/10/27 08:57:40;;;;;;;2.90;2.58;;;;;;;14.59;54.59;97879.13;4918986;28;20053;-62
2021/10/27 09:37:30;;;;;;;3.72;2.85;;;;;;;13.87;53.99;97760.53;4965606;28;20540;-61
2021/10/27 10:05:16;;;;;;;6.43;5.22;;;;;;;14.99;53.83;97845.78;4946564;28;20075;-61
2021/10/27 10:07:44;;;;;;;5.30;3.55;;;;;;;15.32;53.70;97839.44;4944470;29;20063;-62
2021/10/27 10:10:13;;;;;;;11.93;4.75;;;;;;;15.35;52.21;97841.47;4944295;29;20609;-61
2021/10/27 10:12:45;;;;;;;4.00;3.60;;;;;;;15.42;51.91;97842.34;4944396;28;20069;-62
2021/10/27 10:15:14;;;;;;;6.50;3.42;;;;;;;15.86;51.91;97834.81;4945845;28;20066;-62
2021/10/27 10:17:42;;;;;;;7.07;4.25;;;;;;;15.73;52.33;97836.28;4944330;29;20062;-65
2021/10/27 10:20:11;;;;;;;4.38;3.20;;;;;;;14.74;53.18;97772.97;4943800;29;20062;-68
2021/10/27 10:23:18;;;;;;;6.82;4.10;;;;;;;15.21;53.52;97842.09;4963621;28;20535;-60
2021/10/27 10:25:50;;;;;;;5.78;4.10;;;;;;;15.04;53.09;97837.09;4964288;28;20509;-60
2021/10/27 10:28:21;;;;;;;4.70;3.65;;;;;;;15.54;52.25;97836.50;4963901;28;20078;-62
2021/10/27 10:30:57;;;;;;;4.95;4.18;;;;;;;15.84;51.88;97839.97;4963826;28;20149;-65
2021/10/27 10:33:42;;;;;;;8.77;4.85;;;;;;;15.01;52.57;97712.28;4964460;28;20058;-64
2021/10/27 10:36:24;;;;;;;6.53;4.78;;;;;;;15.21;52.93;97830.91;4959788;28;20051;-62
2021/10/27 11:11:49;;;;;;;6.57;5.13;;;;;;;16.09;53.06;97803.88;4961082;28;20051;-58
2021/10/27 11:41:47;;;;;;;8.02;5.28;;;;;;;15.62;54.27;97773.94;4966269;28;20055;-62
2021/10/27 11:45:16;;;;;;;6.97;5.30;;;;;;;14.13;55.37;97541.22;4962332;28;20054;-61
2021/10/27 11:47:43;;;;;;;6.32;5.00;;;;;;;15.12;55.43;97696.47;4963693;28;20057;-61
2021/10/27 11:50:11;;;;;;;7.40;4.85;;;;;;;15.16;55.49;97700.88;4964088;28;20054;-63
2021/10/27 11:52:42;;;;;;;7.13;5.22;;;;;;;15.69;54.98;97757.25;4963086;28;20054;-59
2021/10/27 11:55:13;;;;;;;8.48;5.13;;;;;;;16.09;54.30;97753.56;4961818;28;20525;-63
2021/10/27 11:57:42;;;;;;;6.18;4.82;;;;;;;16.04;54.47;97757.53;4962706;28;20057;-62
2021/10/27 12:00:39;;;;;;;9.27;5.68;;;;;;;16.05;53.25;97719.19;4962271;28;20051;-64
2021/10/27 12:03:20;;;;;;;10.82;5.43;;;;;;;15.74;54.60;97758.88;4963682;28;20062;-60
2021/10/27 12:05:56;;;;;;;9.20;4.95;;;;;;;16.18;53.80;97756.81;4965366;28;20059;-61
2021/10/27 12:19:12;;;;;;;9.90;5.43;;;;;;;16.18;52.95;97763.22;4966115;28;20053;-66
2021/10/27 12:21:48;;;;;;;5.20;4.47;;;;;;;16.19;51.85;97742.44;4965507;28;20059;-60
2021/10/27 12:24:22;;;;;;;6.85;4.55;;;;;;;15.13;52.68;97629.09;4960528;28;20083;-62
2021/10/27 12:29:32;;;;;;;9.18;4.22;;;;;;;15.80;51.62;97679.09;4964342;28;20051;-67
2021/10/27 12:32:13;;;;;;;10.90;5.57;;;;;;;15.84;53.38;97764.53;4963976;28;20043;-59
2021/10/27 12:34:56;;;;;;;11.07;6.90;;;;;;;15.72;53.13;97778.81;4959168;28;20051;-72
2021/10/27 12:37:39;;;;;;;11.13;6.28;;;;;;;16.08;53.00;97758.34;4959915;28;20054;-70
2021/10/27 12:40:14;;;;;;;12.43;7.20;;;;;;;16.26;52.65;97762.06;4966509;28;20063;-69
2021/10/27 12:42:41;;;;;;;16.13;7.47;;;;;;;16.16;52.73;97748.81;4960868;28;20525;-69
2021/10/27 12:45:08;;;;;;;12.27;5.53;;;;;;;16.48;52.15;97771.41;4956577;28;20536;-59
2021/10/27 12:47:39;;;;;;;10.35;4.90;;;;;;;16.01;52.23;97761.06;4947248;28;20055;-61
2021/10/27 12:50:19;;;;;;;10.45;5.38;;;;;;;15.47;51.89;97705.19;4947328;28;20117;-60
2021/10/27 12:53:10;;;;;;;5.63;4.22;;;;;;;15.80;52.93;97774.91;4945635;29;20400;-59
2021/10/27 12:55:38;;;;;;;18.17;7.63;;;;;;;16.06;53.43;97768.31;4947325;28;20078;-59
2021/10/27 12:58:11;;;;;;;12.77;6.53;;;;;;;16.23;53.02;97760.03;4958498;28;20051;-60
2021/10/27 13:01:03;;;;;;;10.02;5.68;;;;;;;16.07;52.83;97734.38;4965293;28;20046;-64
2021/10/27 13:32:01;;;;;;;9.27;4.82;;;;;;;14.40;52.76;97567.03;4965559;28;20063;-68
2021/10/27 13:34:28;;;;;;;5.80;3.90;;;;;;;14.75;52.43;97639.88;4965299;28;20085;-69
2021/10/27 13:36:55;;;;;;;8.10;4.82;;;;;;;15.43;53.38;97765.78;4962843;28;20145;-60
2021/10/27 13:39:23;;;;;;;7.13;5.05;;;;;;;14.24;53.30;97636.09;4964687;28;20501;-67
2021/10/27 13:41:58;;;;;;;8.40;5.25;;;;;;;15.28;53.75;97764.00;4964163;28;20513;-63
2021/10/27 13:44:30;;;;;;;10.70;4.38;;;;;;;15.33;53.45;97772.03;4965020;28;20078;-65
2021/10/27 13:47:06;;;;;;;11.25;5.05;;;;;;;14.89;53.14;97684.69;4964445;28;20053;-65
2021/10/27 14:06:29;;;;;;;14.80;6.47;;;;;;;15.26;53.46;97760.78;4965116;28;20047;-69
2021/10/27 14:09:04;;;;;;;20.48;8.05;;;;;;;15.04;53.63;97753.38;4964520;28;20585;-70
2021/10/27 14:11:35;;;;;;;13.57;6.38;;;;;;;15.25;54.41;97773.16;4963879;28;20054;-69
2021/10/27 14:14:32;;;;;;;11.73;6.20;;;;;;;15.17;54.12;97771.47;4964631;28;20070;-70
2021/10/27 14:17:01;;;;;;;13.43;6.57;;;;;;;15.15;54.44;97766.28;4965012;28;20055;-68
2021/10/27 15:20:06;;;;;;;20.65;9.65;;;;;;;12.59;60.26;97751.03;4971687;28;20053;-69
2021/10/27 15:51:55;;;;;;;10.18;4.75;;;;;;;11.41;71.54;97845.00;4970523;28;20433;-67
2021/10/27 15:54:27;;;;;;;19.00;8.23;;;;;;;11.11;72.60;97785.53;4969422;28;20065;-67
2021/10/27 15:56:54;;;;;;;21.80;9.73;;;;;;;11.25;73.65;97790.69;4969136;28;20082;-68
2021/10/27 15:59:21;;;;;;;44.33;16.05;;;;;;;11.54;75.53;97859.63;4970867;28;20050;-68
2021/10/27 16:01:47;;;;;;;17.33;7.00;;;;;;;10.84;77.03;97805.00;4969273;28;20061;-68
2021/10/27 16:04:15;;;;;;;24.08;10.15;;;;;;;11.29;77.84;97863.69;4970490;28;20051;-67
2021/10/27 16:06:50;;;;;;;18.25;8.38;;;;;;;10.89;78.46;97816.63;4969077;28;20070;-67
2021/10/27 16:09:17;;;;;;;21.70;10.98;;;;;;;11.24;78.96;97880.59;4970697;28;20241;-67
2021/10/27 16:11:44;;;;;;;31.92;14.15;;;;;;;10.90;78.99;97836.84;4970755;28;20055;-67
2021/10/27 16:14:12;;;;;;;29.00;12.98;;;;;;;10.70;79.56;97831.13;4970464;28;20533;-67
2021/10/27 16:16:39;;;;;;;22.30;9.70;;;;;;;11.17;80.39;97885.94;4970632;28;20066;-68
2021/10/27 16:19:19;;;;;;;18.27;7.88;;;;;;;11.13;80.33;97893.38;4970417;28;20051;-69
2021/10/27 16:22:07;;;;;;;19.25;8.90;;;;;;;10.93;82.51;97894.34;4970467;28;20057;-69
2021/10/27 16:24:35;;;;;;;24.50;10.55;;;;;;;10.91;82.11;97903.00;4968116;28;20066;-69
2021/10/27 16:27:02;;;;;;;22.27;11.82;;;;;;;10.91;81.99;97905.00;4966188;28;20054;-68
2021/10/27 16:29:29;;;;;;;29.70;14.82;;;;;;;10.85;81.84;97901.66;4967691;28;20086;-67
2021/10/27 16:31:56;;;;;;;39.65;17.30;;;;;;;10.88;79.26;97914.00;4967775;28;20102;-67
2021/10/27 16:34:23;;;;;;;48.67;20.45;;;;;;;10.90;78.21;97917.22;4967385;28;20068;-67
2021/10/27 16:36:55;;;;;;;57.33;23.67;;;;;;;10.75;78.02;97920.75;4967402;28;20090;-68
2021/10/27 16:39:22;;;;;;;45.97;21.55;;;;;;;10.65;78.62;97931.13;4967346;28;20076;-68
2021/10/27 16:41:49;;;;;;;36.72;18.55;;;;;;;10.50;80.01;97925.50;4965890;28;20050;-68
2021/10/27 16:44:16;;;;;;;50.28;20.92;;;;;;;10.46;81.09;97930.91;4966808;28;20486;-68
2021/10/27 16:46:42;;;;;;;48.47;21.98;;;;;;;10.38;81.74;97934.66;4967388;28;20051;-67
2021/10/27 16:49:09;;;;;;;41.17;22.40;;;;;;;10.02;82.28;97882.00;4967027;28;20113;-67